Time;durP1;ratioP1;P1;durP2;ratioP2;P2;SDS_P1;SDS_P2;PMS_P1;PMS_P2;Temp;Humidity;BMP_temperature;BMP_pressure;BME280_temperature;BME280_humidity;BME280_pressure;Samples;Min_cycle;Max_cycle;Signal;HPM_P1;HPM_P2
2023/11/01 00:00:49;;;;;;;11.80;4.60;;;;;;;13.45;74.41;99222.31;78095;1300;3025947;-70
2023/11/01 00:03:15;;;;;;;10.90;4.50;;;;;;;13.19;75.68;99216.23;79343;1301;3012959;-66
2023/11/01 00:05:48;;;;;;;11.20;5.00;;;;;;;12.96;76.97;99214.57;78653;1298;3375191;-70
2023/11/01 00:08:15;;;;;;;18.00;5.40;;;;;;;12.82;77.37;99213.65;79648;1295;3011861;-71
2023/11/01 00:10:42;;;;;;;14.80;5.90;;;;;;;12.63;78.72;99205.23;79556;1295;3011411;-70
2023/11/01 00:13:10;;;;;;;8.00;3.70;;;;;;;12.46;79.45;99205.23;78289;1295;3050006;-69
2023/11/01 00:15:36;;;;;;;16.70;4.50;;;;;;;12.92;78.23;99198.33;79578;1295;3013490;-71
2023/11/01 00:18:03;;;;;;;10.20;5.10;;;;;;;13.47;75.98;99199.38;79411;1301;3011611;-69
2023/11/01 00:20:31;;;;;;;13.30;4.80;;;;;;;13.56;74.91;99204.64;78465;1301;3027622;-73
2023/11/01 00:22:58;;;;;;;15.80;5.00;;;;;;;13.41;74.63;99197.86;79626;1295;3013084;-71
2023/11/01 00:25:24;;;;;;;16.40;4.70;;;;;;;13.14;75.33;99191.75;79533;1295;3013032;-70
2023/11/01 00:27:52;;;;;;;13.20;4.40;;;;;;;13.00;75.61;99190.54;78415;1295;3026758;-71
2023/11/01 00:30:19;;;;;;;13.20;4.80;;;;;;;12.77;76.75;99186.64;79590;1300;3013061;-72
2023/11/01 00:32:45;;;;;;;14.10;4.80;;;;;;;12.63;77.03;99186.77;79477;1295;3011667;-70
2023/11/01 00:35:13;;;;;;;11.40;5.40;;;;;;;12.42;77.90;99184.45;78283;1295;3026436;-72
2023/11/01 00:37:40;;;;;;;10.30;5.20;;;;;;;12.28;78.28;99184.77;79567;1296;3018388;-70
2023/11/01 00:40:07;;;;;;;10.40;3.70;;;;;;;12.22;78.67;99184.80;79670;1295;3011672;-72
2023/11/01 00:42:36;;;;;;;16.50;3.80;;;;;;;12.66;77.60;99176.34;78270;1300;3049608;-70
2023/11/01 00:45:06;;;;;;;10.70;3.90;;;;;;;13.09;75.46;99179.85;79652;1301;3013354;-71
2023/11/01 00:47:35;;;;;;;12.50;3.90;;;;;;;13.12;74.61;99180.88;78370;1301;3069907;-73
2023/11/01 00:50:02;;;;;;;13.30;4.40;;;;;;;13.01;74.89;99169.22;79615;1295;3011634;-72
2023/11/01 00:52:28;;;;;;;11.00;4.50;;;;;;;12.75;75.80;99172.94;79643;1295;3011923;-71
2023/11/01 00:54:56;;;;;;;12.10;4.60;;;;;;;12.61;76.34;99170.41;78411;1295;3026081;-71
2023/11/01 00:57:23;;;;;;;13.80;5.60;;;;;;;12.40;77.24;99168.62;79603;1300;3011637;-68
2023/11/01 00:59:49;;;;;;;9.00;4.80;;;;;;;12.28;78.01;99162.30;79415;1298;3013038;-70
2023/11/01 01:02:17;;;;;;;9.10;4.60;;;;;;;12.22;78.20;99156.16;78240;1298;3026689;-70
2023/11/01 01:04:45;;;;;;;11.00;5.20;;;;;;;12.10;78.66;99158.11;79537;1298;3013243;-72
2023/11/01 01:07:12;;;;;;;8.70;3.80;;;;;;;12.12;78.58;99152.02;79492;1295;3011654;-72
2023/11/01 01:09:40;;;;;;;10.30;4.10;;;;;;;12.64;77.21;99149.95;78320;1296;3054383;-70
2023/11/01 01:12:07;;;;;;;10.30;4.80;;;;;;;12.94;75.31;99146.31;79530;1295;3018471;-71
2023/11/01 01:14:33;;;;;;;11.60;5.10;;;;;;;12.98;75.22;99138.83;79498;1295;3012839;-71
2023/11/01 01:17:01;;;;;;;12.70;5.40;;;;;;;13.01;75.17;99140.56;78279;1296;3027541;-70
2023/11/01 01:19:27;;;;;;;17.30;5.90;;;;;;;12.75;75.90;99138.96;79482;1295;3015553;-68
2023/11/01 01:21:54;;;;;;;13.10;5.20;;;;;;;12.65;76.32;99135.85;79476;1295;3012982;-69
2023/11/01 01:24:22;;;;;;;13.70;6.00;;;;;;;12.43;77.18;99136.25;78262;1301;3025881;-71
2023/11/01 01:26:48;;;;;;;15.80;5.80;;;;;;;12.42;77.67;99139.65;79599;1301;3018455;-72
2023/11/01 01:29:15;;;;;;;11.70;5.90;;;;;;;12.31;78.20;99132.91;79580;1300;3011509;-72
2023/11/01 01:31:42;;;;;;;12.60;4.90;;;;;;;12.23;78.81;99126.43;78235;1298;3027447;-71
2023/11/01 01:34:09;;;;;;;9.70;5.30;;;;;;;12.64;77.44;99129.97;79564;1295;3013311;-71
2023/11/01 01:36:35;;;;;;;13.40;5.40;;;;;;;13.04;75.86;99128.89;79447;1295;3013083;-71
2023/11/01 01:39:03;;;;;;;16.20;5.50;;;;;;;13.19;75.16;99130.58;78461;1295;3025877;-71
2023/11/01 01:41:30;;;;;;;13.50;6.10;;;;;;;12.97;75.39;99128.73;79538;1295;3013524;-70
2023/11/01 01:43:56;;;;;;;15.60;6.50;;;;;;;12.87;75.98;99129.34;79456;1301;3012872;-71
2023/11/01 01:46:24;;;;;;;11.80;5.90;;;;;;;12.66;76.83;99129.77;78273;1300;3026509;-71
2023/11/01 01:48:50;;;;;;;12.40;6.50;;;;;;;12.54;77.43;99129.63;79554;1304;3013215;-70
2023/11/01 01:51:17;;;;;;;15.20;8.00;;;;;;;12.38;78.43;99126.59;79581;1295;3011672;-70
2023/11/01 01:53:46;;;;;;;17.30;7.60;;;;;;;12.26;79.00;99127.86;78294;1295;3027074;-71
2023/11/01 01:56:13;;;;;;;14.30;5.60;;;;;;;12.29;79.32;99128.30;79701;1295;3013240;-71
2023/11/01 01:58:41;;;;;;;10.20;5.70;;;;;;;12.78;77.68;99131.75;79400;1295;3013076;-71
2023/11/01 02:01:08;;;;;;;15.00;6.50;;;;;;;13.15;75.80;99132.09;78344;1299;3068797;-72
2023/11/01 02:03:35;;;;;;;12.80;6.70;;;;;;;13.02;75.95;99132.20;79501;1295;3013169;-70
2023/11/01 02:06:02;;;;;;;18.60;6.70;;;;;;;12.80;76.76;99121.88;79461;1295;3013613;-71
2023/11/01 02:08:30;;;;;;;15.50;7.20;;;;;;;12.72;76.91;99123.70;78283;1295;3052981;-70
2023/11/01 02:10:58;;;;;;;17.70;6.80;;;;;;;12.54;77.94;99115.90;79527;1298;3011576;-72
2023/11/01 02:13:25;;;;;;;15.70;6.60;;;;;;;12.39;78.77;99114.02;79407;1300;3013355;-71
2023/11/01 02:15:52;;;;;;;16.40;7.70;;;;;;;12.28;79.35;99108.55;78372;1295;3067806;-70
2023/11/01 02:18:19;;;;;;;18.70;6.60;;;;;;;12.22;79.84;99105.08;79428;1295;3013084;-70
2023/11/01 02:20:47;;;;;;;16.50;6.80;;;;;;;12.66;78.50;99098.54;79585;1295;3011732;-71
2023/11/01 02:23:15;;;;;;;21.90;7.70;;;;;;;13.07;76.70;99100.14;78355;1295;3050989;-71
2023/11/01 02:25:43;;;;;;;16.20;7.20;;;;;;;13.11;76.00;99094.76;79622;1301;3013461;-71
2023/11/01 02:28:11;;;;;;;12.80;7.50;;;;;;;12.88;76.90;99089.31;79519;1299;3011249;-69
2023/11/01 02:30:39;;;;;;;14.70;7.80;;;;;;;12.72;77.57;99085.96;78205;1295;3068113;-69
2023/11/01 02:33:06;;;;;;;14.90;7.70;;;;;;;12.54;78.46;99082.58;79590;1295;3013236;-72
2023/11/01 02:35:33;;;;;;;14.30;7.80;;;;;;;12.36;78.93;99082.29;79618;1295;3011781;-73
2023/11/01 02:38:01;;;;;;;14.70;7.80;;;;;;;12.26;79.23;99075.30;78266;1301;3053027;-68
2023/11/01 02:40:27;;;;;;;12.80;6.30;;;;;;;12.19;80.01;99071.58;79534;1298;3013670;-70
2023/11/01 02:42:57;;;;;;;19.30;7.80;;;;;;;12.64;78.55;99068.29;79463;1301;3011614;-69
2023/11/01 02:45:24;;;;;;;18.40;7.90;;;;;;;13.10;76.63;99064.64;78414;1295;3070337;-71
2023/11/01 02:47:51;;;;;;;15.20;7.80;;;;;;;13.13;76.13;99060.84;79619;1296;3012994;-71
2023/11/01 02:50:21;;;;;;;25.00;8.70;;;;;;;12.96;76.49;99059.38;79431;1295;3011693;-73
2023/11/01 02:52:49;;;;;;;19.20;8.40;;;;;;;12.72;77.65;99050.66;78211;1301;3053383;-70
2023/11/01 02:55:15;;;;;;;18.60;8.70;;;;;;;12.52;78.27;99051.11;79474;1300;3019194;-71
2023/11/01 02:57:42;;;;;;;19.90;9.80;;;;;;;12.37;79.35;99047.98;79534;1299;3011607;-71
2023/11/01 03:00:19;;;;;;;18.80;8.80;;;;;;;12.30;79.82;99043.48;78239;1295;3027381;-69
2023/11/01 03:02:48;;;;;;;14.80;7.60;;;;;;;12.26;80.02;99040.55;78391;1298;3052333;-72
2023/11/01 03:05:15;;;;;;;21.60;8.80;;;;;;;12.71;78.82;99035.61;79449;1295;3013385;-69
2023/11/01 03:07:41;;;;;;;22.60;8.80;;;;;;;13.05;76.93;99031.91;79614;1295;3012177;-69
2023/11/01 03:10:09;;;;;;;17.90;8.50;;;;;;;13.09;76.69;99030.55;78229;1295;3026956;-69
2023/11/01 03:12:39;;;;;;;26.60;9.10;;;;;;;13.00;76.76;99024.05;79512;1301;3013715;-71
2023/11/01 03:15:09;;;;;;;23.00;10.00;;;;;;;12.81;77.76;99024.30;78941;1296;3011463;-69
2023/11/01 03:17:35;;;;;;;20.50;10.30;;;;;;;12.65;78.44;99020.20;79626;1295;3013410;-73
2023/11/01 03:20:06;;;;;;;20.20;10.30;;;;;;;12.50;79.45;99021.04;79504;1295;3013335;-70
2023/11/01 03:22:34;;;;;;;20.90;8.70;;;;;;;12.53;78.67;99009.92;78332;1296;3048033;-69
2023/11/01 03:25:01;;;;;;;13.60;7.30;;;;;;;12.41;79.12;99016.59;79474;1300;3013706;-68
2023/11/01 03:27:28;;;;;;;16.80;8.00;;;;;;;12.75;78.35;99014.73;79494;1298;3011925;-69
2023/11/01 03:29:56;;;;;;;18.20;7.80;;;;;;;13.02;76.79;99013.16;78382;1298;3052520;-69
2023/11/01 03:32:23;;;;;;;16.80;8.80;;;;;;;13.24;76.02;99010.06;79580;1296;3013118;-69
2023/11/01 03:34:49;;;;;;;17.90;8.50;;;;;;;13.00;76.50;99012.83;79627;1295;3011612;-69
2023/11/01 03:37:17;;;;;;;20.20;9.20;;;;;;;12.81;77.20;99009.89;78207;1300;3025883;-69
2023/11/01 03:39:43;;;;;;;19.40;9.60;;;;;;;12.65;78.20;99010.91;79543;1298;3013210;-68
2023/11/01 03:42:10;;;;;;;27.20;9.60;;;;;;;12.49;79.30;99012.16;79563;1300;3011701;-69
2023/11/01 03:44:37;;;;;;;19.50;9.40;;;;;;;12.36;79.61;99011.02;78350;1298;3028103;-69
2023/11/01 03:47:04;;;;;;;17.20;7.60;;;;;;;12.31;79.94;99008.73;79602;1296;3019163;-69
2023/11/01 03:49:30;;;;;;;16.40;7.50;;;;;;;12.81;78.94;99007.55;79530;1295;3011574;-68
2023/11/01 03:51:59;;;;;;;14.70;7.20;;;;;;;13.08;76.93;99004.78;78291;1295;3026588;-71
2023/11/01 03:54:26;;;;;;;12.90;7.60;;;;;;;13.12;76.37;99004.32;79716;1295;3013689;-69
2023/11/01 03:56:52;;;;;;;16.00;8.00;;;;;;;12.90;77.06;98998.80;79740;1296;3011717;-72
2023/11/01 03:59:20;;;;;;;18.20;9.00;;;;;;;12.67;77.98;98996.32;78496;1295;3051656;-71
2023/11/01 04:01:47;;;;;;;19.90;8.40;;;;;;;12.54;78.51;98991.69;79880;1297;3018982;-71
2023/11/01 04:04:13;;;;;;;26.90;9.60;;;;;;;12.37;79.06;98990.02;79755;1296;3011682;-71
2023/11/01 04:06:41;;;;;;;17.20;8.60;;;;;;;12.25;79.77;98988.96;78713;1295;3026986;-71
2023/11/01 04:09:07;;;;;;;19.60;9.00;;;;;;;12.10;80.77;98987.97;79796;1295;3013272;-67
2023/11/01 04:11:34;;;;;;;14.00;7.80;;;;;;;12.48;79.91;98981.48;79674;1298;3013046;-68
2023/11/01 04:14:03;;;;;;;11.40;6.80;;;;;;;13.02;77.32;98973.11;78546;1298;3026932;-69
2023/11/01 04:16:30;;;;;;;21.70;8.90;;;;;;;12.97;76.87;98976.46;79671;1294;3014563;-68
2023/11/01 04:18:57;;;;;;;14.00;8.20;;;;;;;12.80;77.42;98979.58;79715;1297;3013031;-68
2023/11/01 04:21:25;;;;;;;16.20;9.20;;;;;;;12.68;77.76;98982.95;78588;1295;3048563;-68
2023/11/01 04:23:54;;;;;;;18.60;8.80;;;;;;;12.52;78.47;98982.09;79566;1295;3018298;-67
2023/11/01 04:26:20;;;;;;;17.80;8.70;;;;;;;12.27;79.87;98981.63;79736;1298;3013678;-69
2023/11/01 04:28:48;;;;;;;25.30;9.80;;;;;;;12.17;80.34;98976.77;78564;1295;3052069;-68
2023/11/01 04:31:15;;;;;;;17.50;8.50;;;;;;;12.07;80.59;98984.34;79670;1296;3013230;-71
2023/11/01 04:33:42;;;;;;;20.00;8.10;;;;;;;12.45;80.05;98982.08;79771;1294;3011845;-71
2023/11/01 04:36:09;;;;;;;20.50;9.20;;;;;;;12.82;77.73;98979.91;78596;1295;3026737;-70
2023/11/01 04:38:37;;;;;;;21.50;9.60;;;;;;;12.86;77.18;98972.20;79727;1295;3013232;-69
2023/11/01 04:41:09;;;;;;;22.10;9.00;;;;;;;12.66;78.12;98968.19;79752;1295;3011929;-72
2023/11/01 04:43:36;;;;;;;23.10;9.50;;;;;;;12.54;78.78;98972.62;78426;1294;3052538;-70
2023/11/01 04:46:04;;;;;;;22.00;9.70;;;;;;;12.37;79.07;98966.81;79761;1295;3012844;-70
2023/11/01 04:48:31;;;;;;;18.90;9.00;;;;;;;12.33;79.39;98967.35;79717;1295;3011873;-69
2023/11/01 04:51:00;;;;;;;19.20;9.70;;;;;;;12.17;80.30;98966.93;78431;1295;3049333;-70
2023/11/01 04:53:27;;;;;;;18.70;8.40;;;;;;;12.14;80.68;98971.06;79768;1297;3018502;-69
2023/11/01 04:55:54;;;;;;;21.10;9.30;;;;;;;12.66;79.30;98968.64;79787;1298;3011549;-70
2023/11/01 04:58:22;;;;;;;21.60;9.60;;;;;;;13.08;77.11;98968.73;78457;1295;3024690;-70
2023/11/01 05:00:51;;;;;;;20.10;9.80;;;;;;;13.00;77.03;98970.42;79778;1297;3013123;-70
2023/11/01 05:03:20;;;;;;;23.70;10.60;;;;;;;12.90;77.26;98972.49;79272;1297;3013483;-68
2023/11/01 05:05:46;;;;;;;19.40;9.90;;;;;;;12.72;78.15;98976.14;79834;1294;3012826;-69
2023/11/01 05:08:13;;;;;;;17.90;10.90;;;;;;;12.64;78.80;98973.77;79684;1295;3011854;-71
2023/11/01 05:10:41;;;;;;;25.20;11.30;;;;;;;12.60;78.52;98972.83;78445;1298;3027104;-71
2023/11/01 05:13:07;;;;;;;22.90;10.30;;;;;;;12.49;79.27;98973.66;79699;1295;3013145;-68
2023/11/01 05:15:36;;;;;;;16.70;8.80;;;;;;;12.38;80.34;98978.35;79755;1295;3011912;-70
2023/11/01 05:18:04;;;;;;;20.00;10.00;;;;;;;12.89;78.26;98977.80;78541;1293;3051896;-72
2023/11/01 05:20:30;;;;;;;25.00;11.20;;;;;;;13.31;76.71;98974.20;79658;1295;3021164;-70
2023/11/01 05:22:57;;;;;;;21.00;10.20;;;;;;;13.24;76.89;98978.23;79709;1294;3013547;-70
2023/11/01 05:25:25;;;;;;;19.30;10.10;;;;;;;13.20;76.79;98978.73;78409;1295;3026668;-71
2023/11/01 05:27:52;;;;;;;19.40;10.50;;;;;;;13.09;76.95;98985.04;79737;1297;3011648;-71
2023/11/01 05:30:18;;;;;;;22.50;10.80;;;;;;;12.93;77.40;98984.69;79672;1295;3011967;-72
2023/11/01 05:32:46;;;;;;;18.10;9.40;;;;;;;12.75;78.36;98983.40;78477;1298;3051342;-71
2023/11/01 05:35:14;;;;;;;20.60;9.80;;;;;;;12.57;79.19;98981.52;79617;1294;3018603;-72
2023/11/01 05:37:40;;;;;;;16.70;7.60;;;;;;;12.56;79.31;98976.27;79747;1295;3011583;-72
2023/11/01 05:40:13;;;;;;;20.10;8.00;;;;;;;13.11;77.99;98968.89;78495;1296;3027280;-73
2023/11/01 05:42:43;;;;;;;20.60;8.30;;;;;;;13.53;76.03;98970.13;79690;1294;3012144;-70
2023/11/01 05:45:15;;;;;;;20.50;8.60;;;;;;;13.48;75.57;98966.14;78498;1295;3052672;-69
2023/11/01 05:47:49;;;;;;;18.30;9.50;;;;;;;13.36;75.95;98966.39;79625;1293;3011322;-72
2023/11/01 05:50:24;;;;;;;19.00;9.90;;;;;;;13.20;76.85;98964.82;78515;1298;3051240;-71
2023/11/01 05:52:54;;;;;;;22.00;9.90;;;;;;;12.99;77.62;98965.22;79082;1294;3011640;-72
2023/11/01 05:55:20;;;;;;;18.70;10.00;;;;;;;12.91;78.31;98964.43;79791;1295;3012556;-75
2023/11/01 05:57:50;;;;;;;22.50;10.80;;;;;;;12.82;78.79;98963.02;79788;1295;3011609;-74
2023/11/01 06:00:18;;;;;;;20.00;8.60;;;;;;;12.78;78.67;98962.09;78511;1298;3050425;-72
2023/11/01 06:02:45;;;;;;;21.40;9.90;;;;;;;13.30;77.51;98959.87;79788;1295;3013756;-72
2023/11/01 06:05:12;;;;;;;22.50;10.80;;;;;;;13.55;76.28;98961.54;79721;1294;3011686;-72
2023/11/01 06:07:39;;;;;;;20.10;9.30;;;;;;;13.49;76.43;98970.11;78568;1295;3052205;-72
2023/11/01 06:10:07;;;;;;;20.40;9.90;;;;;;;13.48;76.62;98967.52;79818;1295;3013478;-73
2023/11/01 06:12:33;;;;;;;22.70;10.00;;;;;;;13.24;77.50;98964.52;79777;1295;3011659;-71
2023/11/01 06:15:02;;;;;;;23.10;9.90;;;;;;;13.03;78.35;98971.42;78524;1298;3049265;-72
2023/11/01 06:17:29;;;;;;;23.70;10.00;;;;;;;12.74;80.06;98973.35;79819;1294;3014576;-71
2023/11/01 06:19:56;;;;;;;23.40;11.10;;;;;;;12.69;80.62;98972.00;79826;1293;3011995;-72
2023/11/01 06:22:23;;;;;;;24.00;9.40;;;;;;;12.75;80.94;98969.23;78473;1298;3050582;-72
2023/11/01 06:24:50;;;;;;;16.70;9.50;;;;;;;13.03;79.99;98967.02;79784;1296;3015854;-72
2023/11/01 06:27:16;;;;;;;21.90;9.90;;;;;;;13.48;78.36;98959.10;79818;1296;3011653;-71
2023/11/01 06:29:44;;;;;;;18.50;9.70;;;;;;;13.56;77.90;98949.45;78513;1295;3028536;-73
2023/11/01 06:32:11;;;;;;;21.90;10.50;;;;;;;13.48;78.58;98946.05;79849;1294;3013152;-72
2023/11/01 06:34:37;;;;;;;23.80;10.80;;;;;;;13.34;79.24;98954.39;79641;1294;3011641;-71
2023/11/01 06:37:06;;;;;;;23.90;11.10;;;;;;;13.16;80.07;98955.46;78479;1294;3026356;-72
2023/11/01 06:39:32;;;;;;;22.80;11.80;;;;;;;13.02;81.16;98956.21;79753;1295;3018798;-73
2023/11/01 06:42:01;;;;;;;20.90;9.40;;;;;;;12.98;81.42;98957.95;79674;1295;3011882;-72
2023/11/01 06:44:32;;;;;;;21.30;10.40;;;;;;;13.43;80.55;98958.59;78503;1298;3048630;-72
2023/11/01 06:46:58;;;;;;;23.90;10.40;;;;;;;13.67;79.36;98956.23;79955;1293;3011505;-71
2023/11/01 06:49:25;;;;;;;20.00;9.90;;;;;;;13.67;79.28;98958.98;79810;1294;3013002;-72
2023/11/01 06:51:55;;;;;;;28.20;12.10;;;;;;;13.53;80.21;98957.52;78408;1298;3052626;-71
2023/11/01 06:54:22;;;;;;;24.80;12.50;;;;;;;13.33;81.17;98957.33;79793;1294;3011975;-72
2023/11/01 06:56:48;;;;;;;24.30;11.20;;;;;;;13.26;81.88;98961.52;79666;1298;3011811;-72
2023/11/01 06:59:16;;;;;;;27.30;11.90;;;;;;;13.16;82.20;98951.23;78443;1296;3048740;-72
2023/11/01 07:01:42;;;;;;;20.70;10.20;;;;;;;13.75;80.77;98942.51;79687;1298;3013143;-71
2023/11/01 07:04:09;;;;;;;26.80;11.10;;;;;;;14.15;78.62;98939.02;79788;1293;3011806;-72
2023/11/01 07:06:38;;;;;;;26.60;11.00;;;;;;;14.14;78.51;98936.33;78511;1295;3026327;-71
2023/11/01 07:09:05;;;;;;;24.80;11.40;;;;;;;14.07;79.12;98936.72;79799;1295;3013740;-66
2023/11/01 07:11:32;;;;;;;23.70;12.10;;;;;;;14.02;79.39;98927.79;79680;1295;3011645;-68
2023/11/01 07:14:00;;;;;;;28.20;12.80;;;;;;;13.89;80.06;98921.77;78701;1294;3049241;-69
2023/11/01 07:16:27;;;;;;;30.60;12.20;;;;;;;13.77;81.11;98918.77;79834;1298;3013613;-71
2023/11/01 07:18:53;;;;;;;18.20;10.00;;;;;;;13.78;81.38;98916.55;79789;1295;3012006;-70
2023/11/01 07:21:21;;;;;;;20.20;9.70;;;;;;;14.42;79.23;98913.34;78741;1294;3028503;-68
2023/11/01 07:23:47;;;;;;;21.60;10.50;;;;;;;14.79;77.11;98913.35;79804;1296;3012789;-72
2023/11/01 07:26:14;;;;;;;30.60;11.50;;;;;;;14.72;77.17;98915.34;79935;1295;3011741;-71
2023/11/01 07:28:42;;;;;;;25.90;11.20;;;;;;;14.58;77.84;98912.45;78643;1295;3025274;-72
2023/11/01 07:31:09;;;;;;;21.60;10.30;;;;;;;14.70;77.50;98906.95;80042;1298;3012885;-71
2023/11/01 07:33:37;;;;;;;21.90;11.70;;;;;;;14.65;77.35;98905.77;79753;1295;3013624;-73
2023/11/01 07:36:06;;;;;;;28.80;10.70;;;;;;;14.47;78.32;98903.21;78659;1298;3052367;-71
2023/11/01 07:38:32;;;;;;;24.30;10.30;;;;;;;14.49;78.20;98902.00;79787;1295;3013492;-70
2023/11/01 07:40:59;;;;;;;20.20;9.00;;;;;;;14.48;78.57;98903.70;79748;1296;3011710;-71
2023/11/01 07:43:27;;;;;;;16.90;8.90;;;;;;;14.99;76.75;98908.67;78519;1298;3049713;-72
2023/11/01 07:45:53;;;;;;;22.70;9.30;;;;;;;15.35;75.22;98911.48;79852;1298;3013074;-72
2023/11/01 07:48:20;;;;;;;18.60;9.70;;;;;;;15.39;75.12;98908.84;79748;1297;3011813;-70
2023/11/01 07:50:48;;;;;;;19.90;10.20;;;;;;;15.48;75.12;98908.48;78453;1298;3025807;-70
2023/11/01 07:53:14;;;;;;;21.80;10.00;;;;;;;15.36;75.47;98902.23;79651;1297;3018700;-70
2023/11/01 07:55:41;;;;;;;25.40;10.00;;;;;;;15.30;75.70;98903.29;79926;1294;3013426;-71
2023/11/01 07:58:09;;;;;;;18.30;9.80;;;;;;;15.33;75.90;98900.02;78437;1297;3028422;-69
2023/11/01 08:00:36;;;;;;;21.60;9.90;;;;;;;15.19;76.25;98902.67;79780;1295;3012813;-71
2023/11/01 08:03:02;;;;;;;25.50;10.60;;;;;;;15.20;76.36;98901.65;79586;1295;3011858;-71
2023/11/01 08:05:30;;;;;;;21.50;9.00;;;;;;;15.21;76.62;98901.79;78547;1295;3026126;-70
2023/11/01 08:07:57;;;;;;;20.70;8.20;;;;;;;15.61;75.28;98901.52;79720;1294;3013591;-69
2023/11/01 08:10:23;;;;;;;19.50;8.60;;;;;;;16.04;73.53;98903.48;79856;1295;3011653;-70
2023/11/01 08:12:51;;;;;;;16.70;8.50;;;;;;;16.33;72.24;98904.59;78465;1294;3028385;-68
2023/11/01 08:15:18;;;;;;;17.70;8.30;;;;;;;16.07;73.01;98912.20;79682;1297;3013712;-71
2023/11/01 08:17:44;;;;;;;17.40;8.50;;;;;;;15.93;73.71;98908.05;79569;1294;3011479;-68
2023/11/01 08:20:12;;;;;;;18.70;9.00;;;;;;;16.02;73.40;98906.33;78941;1295;3027588;-69
2023/11/01 08:22:39;;;;;;;18.40;8.70;;;;;;;15.97;74.26;98897.60;79681;1298;3013450;-68
2023/11/01 08:25:06;;;;;;;21.60;9.20;;;;;;;16.00;74.13;98894.59;79705;1295;3012811;-71
2023/11/01 08:27:34;;;;;;;22.60;9.00;;;;;;;15.93;74.47;98892.51;78680;1298;3036328;-71
2023/11/01 08:30:01;;;;;;;22.50;9.00;;;;;;;15.98;74.57;98887.09;79705;1297;3013225;-68
2023/11/01 08:32:27;;;;;;;13.60;6.70;;;;;;;16.06;74.96;98891.17;79754;1296;3011786;-70
2023/11/01 08:34:57;;;;;;;16.70;6.50;;;;;;;16.52;73.45;98891.30;78682;1295;3026671;-67
2023/11/01 08:37:24;;;;;;;17.70;6.60;;;;;;;17.20;71.16;98884.41;79814;1298;3012810;-69
2023/11/01 08:39:50;;;;;;;20.90;7.00;;;;;;;17.18;71.03;98887.11;79692;1295;3011477;-67
2023/11/01 08:42:18;;;;;;;15.40;6.90;;;;;;;17.22;70.83;98888.83;78717;1295;3050053;-70
2023/11/01 08:44:45;;;;;;;18.30;7.60;;;;;;;17.22;71.05;98891.91;79641;1298;3013769;-68
2023/11/01 08:47:17;;;;;;;18.50;8.30;;;;;;;16.90;72.27;98890.83;79874;1298;3011645;-69
2023/11/01 08:49:45;;;;;;;20.90;7.90;;;;;;;17.05;72.16;98891.77;78533;1294;3050796;-71
2023/11/01 08:52:12;;;;;;;21.00;7.50;;;;;;;16.84;72.97;98892.50;79830;1294;3013374;-70
2023/11/01 08:54:40;;;;;;;23.80;7.80;;;;;;;16.81;73.66;98889.63;79670;1295;3011701;-70
2023/11/01 08:57:08;;;;;;;23.00;8.00;;;;;;;16.75;74.29;98887.52;78629;1298;3049310;-68
2023/11/01 08:59:34;;;;;;;19.10;7.40;;;;;;;16.76;74.30;98887.80;79759;1297;3012833;-70
2023/11/01 09:02:01;;;;;;;16.00;5.90;;;;;;;16.78;74.82;98887.72;79798;1295;3011492;-68
2023/11/01 09:04:32;;;;;;;14.40;6.20;;;;;;;17.53;72.65;98884.83;78646;1298;3051685;-71
2023/11/01 09:06:59;;;;;;;13.50;5.80;;;;;;;18.04;70.72;98883.70;79698;1298;3013033;-69
2023/11/01 09:09:25;;;;;;;17.60;6.10;;;;;;;17.99;70.25;98890.02;79582;1295;3013025;-71
2023/11/01 09:11:53;;;;;;;16.40;6.60;;;;;;;17.88;70.32;98883.76;78680;1298;3028756;-72
2023/11/01 09:14:37;;;;;;;18.70;7.00;;;;;;;17.92;70.58;98878.08;78460;1298;3052716;-72
2023/11/01 09:17:04;;;;;;;19.80;6.70;;;;;;;17.79;70.76;98877.65;80160;1295;3013598;-72
2023/11/01 09:19:30;;;;;;;17.10;7.10;;;;;;;17.76;71.44;98871.69;79995;1295;3011732;-73
2023/11/01 09:21:58;;;;;;;18.20;6.90;;;;;;;17.65;71.42;98874.55;78498;1294;3026574;-71
2023/11/01 09:24:24;;;;;;;14.70;6.40;;;;;;;17.40;73.02;98877.16;79791;1295;3012939;-72
2023/11/01 09:26:51;;;;;;;15.50;6.80;;;;;;;17.25;74.23;98878.64;79827;1295;3011704;-71
2023/11/01 09:29:19;;;;;;;14.50;6.60;;;;;;;17.18;75.14;98875.08;78576;1298;3026098;-69
2023/11/01 09:31:46;;;;;;;15.80;5.70;;;;;;;17.20;75.28;98873.80;80022;1298;3013431;-73
2023/11/01 09:34:12;;;;;;;15.00;5.20;;;;;;;17.71;74.20;98872.17;79823;1297;3011881;-72
2023/11/01 09:36:43;;;;;;;18.70;5.90;;;;;;;18.11;72.52;98874.40;78710;1295;3028357;-75
2023/11/01 09:39:09;;;;;;;14.00;6.50;;;;;;;18.31;71.68;98876.13;79951;1294;3011602;-68
2023/11/01 09:41:52;;;;;;;15.20;6.40;;;;;;;18.14;72.26;98873.45;79526;1298;3012991;-69
2023/11/01 09:44:20;;;;;;;21.80;7.00;;;;;;;17.76;74.05;98865.32;78315;1298;3050631;-69
2023/11/01 09:46:47;;;;;;;18.50;6.60;;;;;;;18.06;72.81;98858.76;79712;1298;3015739;-71
2023/11/01 09:49:15;;;;;;;19.70;6.80;;;;;;;18.13;72.54;98853.48;79597;1300;3011847;-65
2023/11/01 09:51:44;;;;;;;18.10;6.80;;;;;;;18.01;73.22;98848.37;78523;1294;3050390;-65
2023/11/01 09:54:11;;;;;;;13.40;7.50;;;;;;;17.82;73.77;98855.23;79841;1294;3013863;-71
2023/11/01 09:56:43;;;;;;;14.40;7.20;;;;;;;17.66;74.52;98850.25;79854;1296;3011777;-72
2023/11/01 09:59:12;;;;;;;26.60;8.30;;;;;;;17.48;75.82;98846.98;78575;1298;3049238;-70
2023/11/01 10:01:39;;;;;;;11.10;5.90;;;;;;;17.39;76.16;98848.23;79813;1295;3013687;-72
2023/11/01 10:04:06;;;;;;;13.80;6.20;;;;;;;17.72;75.37;98851.53;79664;1295;3013199;-70
2023/11/01 10:06:35;;;;;;;17.90;6.50;;;;;;;17.97;74.58;98839.48;78563;1298;3051887;-73
2023/11/01 10:09:03;;;;;;;22.50;7.90;;;;;;;17.83;75.04;98828.48;79848;1294;3011825;-68
2023/11/01 10:11:32;;;;;;;25.40;8.00;;;;;;;17.88;74.86;98825.19;79223;1298;3011776;-68
2023/11/01 10:14:02;;;;;;;17.70;8.00;;;;;;;17.89;75.13;98825.06;79792;1296;3013159;-69
2023/11/01 10:16:30;;;;;;;27.10;8.30;;;;;;;17.73;75.74;98829.34;79230;1298;3011854;-72
2023/11/01 10:18:57;;;;;;;23.10;8.00;;;;;;;17.83;75.72;98825.98;79736;1297;3013201;-73
2023/11/01 10:21:29;;;;;;;16.80;8.60;;;;;;;18.00;75.47;98820.11;79650;1297;3011813;-71
2023/11/01 10:23:58;;;;;;;20.80;8.30;;;;;;;18.07;75.01;98814.83;78430;1294;3051415;-70
2023/11/01 10:26:28;;;;;;;20.00;6.50;;;;;;;18.02;75.45;98817.92;79701;1297;3013083;-68
2023/11/01 10:28:57;;;;;;;16.40;6.70;;;;;;;18.38;73.62;98816.39;78661;1298;3052147;-71
2023/11/01 10:31:23;;;;;;;22.30;9.60;;;;;;;18.78;72.21;98808.86;79881;1297;3013028;-72
2023/11/01 10:33:50;;;;;;;18.80;9.20;;;;;;;18.84;71.64;98810.52;79781;1296;3011526;-72
2023/11/01 10:36:19;;;;;;;20.30;8.90;;;;;;;18.95;71.41;98803.20;78394;1296;3070158;-68
2023/11/01 10:38:47;;;;;;;19.50;7.80;;;;;;;18.95;71.49;98807.39;79818;1297;3013192;-70
2023/11/01 10:41:18;;;;;;;21.50;7.70;;;;;;;18.88;71.74;98801.41;79160;1295;3011586;-70
2023/11/01 10:43:44;;;;;;;16.30;7.40;;;;;;;18.71;72.38;98794.73;79654;1295;3013556;-72
2023/11/01 10:46:11;;;;;;;18.40;8.30;;;;;;;18.63;72.63;98790.02;79666;1295;3011798;-71
2023/11/01 10:48:39;;;;;;;19.10;8.10;;;;;;;18.49;73.24;98791.00;78582;1298;3050806;-71
2023/11/01 10:51:05;;;;;;;21.90;8.60;;;;;;;18.51;73.38;98785.39;79803;1296;3012726;-72
2023/11/01 10:53:33;;;;;;;22.10;8.90;;;;;;;18.48;73.82;98782.89;79820;1301;3013383;-67
2023/11/01 10:56:03;;;;;;;20.80;8.90;;;;;;;18.30;74.49;98789.33;78449;1298;3056005;-73
2023/11/01 10:58:32;;;;;;;19.50;6.50;;;;;;;18.20;75.05;98782.44;79943;1295;3012601;-69
2023/11/01 11:01:03;;;;;;;21.20;7.60;;;;;;;18.67;73.95;98781.27;78372;1300;3026547;-69
2023/11/01 11:04:10;;;;;;;20.50;8.00;;;;;;;19.08;72.15;98777.67;79722;1298;3011913;-69
2023/11/01 11:06:44;;;;;;;23.10;8.40;;;;;;;18.88;72.68;98771.67;78465;1300;3051913;-73
2023/11/01 11:09:23;;;;;;;18.70;8.40;;;;;;;18.88;72.95;98766.35;79540;1296;3013516;-73